sensor_id;sensor_type;location;lat;lon;timestamp;pressure;altitude;pressure_sealevel;temperature;humidity
27304;BME280;14791;52.392;13.092;2022-12-07T00:01:46;100892.45;;;7.68;56.99
27304;BME280;14791;52.392;13.092;2022-12-07T00:04:17;100887.22;;;7.66;56.88
27304;BME280;14791;52.392;13.092;2022-12-07T00:06:50;100887.66;;;7.66;56.80
27304;BME280;14791;52.392;13.092;2022-12-07T00:09:19;100892.22;;;7.64;56.62
27304;BME280;14791;52.392;13.092;2022-12-07T00:11:51;100887.11;;;7.59;56.59
27304;BME280;14791;52.392;13.092;2022-12-07T00:14:20;100887.23;;;7.56;56.54
27304;BME280;14791;52.392;13.092;2022-12-07T00:16:51;100877.23;;;7.53;56.51
27304;BME280;14791;52.392;13.092;2022-12-07T00:19:20;100880.80;;;7.52;56.41
27304;BME280;14791;52.392;13.092;2022-12-07T00:21:49;100876.97;;;7.49;56.39
27304;BME280;14791;52.392;13.092;2022-12-07T00:24:18;100873.52;;;7.46;56.34
27304;BME280;14791;52.392;13.092;2022-12-07T00:26:47;100868.67;;;7.46;56.32
27304;BME280;14791;52.392;13.092;2022-12-07T00:29:20;100870.06;;;7.44;56.20
27304;BME280;14791;52.392;13.092;2022-12-07T00:31:51;100867.97;;;7.42;56.21
27304;BME280;14791;52.392;13.092;2022-12-07T00:34:21;100864.09;;;7.39;56.22
27304;BME280;14791;52.392;13.092;2022-12-07T00:36:50;100858.88;;;7.38;56.17
27304;BME280;14791;52.392;13.092;2022-12-07T00:39:19;100850.44;;;7.38;56.15
27304;BME280;14791;52.392;13.092;2022-12-07T00:41:48;100851.29;;;7.39;56.13
27304;BME280;14791;52.392;13.092;2022-12-07T00:44:17;100851.29;;;7.39;56.09
27304;BME280;14791;52.392;13.092;2022-12-07T00:46:45;100849.48;;;7.39;56.11
27304;BME280;14791;52.392;13.092;2022-12-07T00:49:14;100856.07;;;7.41;56.12
27304;BME280;14791;52.392;13.092;2022-12-07T00:51:43;100852.88;;;7.43;56.09
27304;BME280;14791;52.392;13.092;2022-12-07T00:54:12;100852.41;;;7.43;56.10
27304;BME280;14791;52.392;13.092;2022-12-07T00:56:41;100850.06;;;7.46;56.01
27304;BME280;14791;52.392;13.092;2022-12-07T00:59:12;100849.59;;;7.46;56.01
27304;BME280;14791;52.392;13.092;2022-12-07T01:01:42;100847.34;;;7.48;55.91
27304;BME280;14791;52.392;13.092;2022-12-07T01:04:11;100838.97;;;7.46;55.91
27304;BME280;14791;52.392;13.092;2022-12-07T01:06:40;100833.64;;;7.46;55.78
27304;BME280;14791;52.392;13.092;2022-12-07T01:09:09;100830.13;;;7.46;55.69
27304;BME280;14791;52.392;13.092;2022-12-07T01:11:38;100820.89;;;7.44;55.56
27304;BME280;14791;52.392;13.092;2022-12-07T01:14:08;100825.45;;;7.42;55.47
27304;BME280;14791;52.392;13.092;2022-12-07T01:16:38;100821.58;;;7.39;55.45
27304;BME280;14791;52.392;13.092;2022-12-07T01:19:08;100818.12;;;7.37;55.45
27304;BME280;14791;52.392;13.092;2022-12-07T01:21:36;100813.37;;;7.35;55.50
27304;BME280;14791;52.392;13.092;2022-12-07T01:24:09;100815.63;;;7.34;55.53
27304;BME280;14791;52.392;13.092;2022-12-07T01:26:38;100816.95;;;7.34;55.65
27304;BME280;14791;52.392;13.092;2022-12-07T01:29:07;100805.47;;;7.34;55.60
27304;BME280;14791;52.392;13.092;2022-12-07T01:31:36;100805.41;;;7.35;55.62
27304;BME280;14791;52.392;13.092;2022-12-07T01:34:05;100799.14;;;7.36;55.56
27304;BME280;14791;52.392;13.092;2022-12-07T01:36:35;100793.30;;;7.38;55.49
27304;BME280;14791;52.392;13.092;2022-12-07T01:39:06;100802.60;;;7.38;55.37
27304;BME280;14791;52.392;13.092;2022-12-07T01:41:38;100798.61;;;7.38;55.33
27304;BME280;14791;52.392;13.092;2022-12-07T01:46:57;100797.50;;;7.34;55.41
27304;BME280;14791;52.392;13.092;2022-12-07T01:54:36;100795.21;;;7.26;55.57
27304;BME280;14791;52.392;13.092;2022-12-07T01:57:07;100780.72;;;7.23;55.58
27304;BME280;14791;52.392;13.092;2022-12-07T01:59:36;100781.66;;;7.22;55.61
27304;BME280;14791;52.392;13.092;2022-12-07T02:02:08;100778.63;;;7.21;55.57
27304;BME280;14791;52.392;13.092;2022-12-07T02:04:38;100774.64;;;7.21;55.51
27304;BME280;14791;52.392;13.092;2022-12-07T02:07:07;100779.16;;;7.19;55.58
27304;BME280;14791;52.392;13.092;2022-12-07T02:09:36;100767.27;;;7.17;55.59
27304;BME280;14791;52.392;13.092;2022-12-07T02:12:05;100769.06;;;7.17;55.54
27304;BME280;14791;52.392;13.092;2022-12-07T02:14:34;100763.34;;;7.16;55.58
27304;BME280;14791;52.392;13.092;2022-12-07T02:17:25;100760.30;;;7.15;55.64
27304;BME280;14791;52.392;13.092;2022-12-07T02:22:58;100766.45;;;7.07;55.68
27304;BME280;14791;52.392;13.092;2022-12-07T02:28:21;100759.45;;;6.95;55.90
27304;BME280;14791;52.392;13.092;2022-12-07T02:30:47;100754.81;;;6.90;56.05
27304;BME280;14791;52.392;13.092;2022-12-07T02:33:24;100757.53;;;6.89;56.03
27304;BME280;14791;52.392;13.092;2022-12-07T02:36:00;100754.02;;;6.88;56.12
27304;BME280;14791;52.392;13.092;2022-12-07T02:38:35;100750.52;;;6.88;56.06
27304;BME280;14791;52.392;13.092;2022-12-07T02:41:12;100744.34;;;6.87;56.09
27304;BME280;14791;52.392;13.092;2022-12-07T02:43:44;100751.05;;;6.86;56.20
27304;BME280;14791;52.392;13.092;2022-12-07T02:46:20;100750.56;;;6.86;56.21
27304;BME280;14791;52.392;13.092;2022-12-07T02:48:48;100740.42;;;6.86;56.28
27304;BME280;14791;52.392;13.092;2022-12-07T02:51:19;100732.93;;;6.85;56.38
27304;BME280;14791;52.392;13.092;2022-12-07T02:53:48;100727.94;;;6.88;56.42
27304;BME280;14791;52.392;13.092;2022-12-07T03:08:11;100714.04;;;6.91;56.64
27304;BME280;14791;52.392;13.092;2022-12-07T03:10:59;100710.05;;;6.91;56.71
27304;BME280;14791;52.392;13.092;2022-12-07T03:16:18;100694.66;;;6.89;56.80
27304;BME280;14791;52.392;13.092;2022-12-07T03:18:55;100694.98;;;6.92;56.82
27304;BME280;14791;52.392;13.092;2022-12-07T03:21:25;100693.59;;;6.93;56.87
27304;BME280;14791;52.392;13.092;2022-12-07T03:23:59;100682.28;;;6.98;56.85
27304;BME280;14791;52.392;13.092;2022-12-07T03:26:32;100684.72;;;7.03;56.81
27304;BME280;14791;52.392;13.092;2022-12-07T03:29:05;100688.11;;;7.07;56.85
27304;BME280;14791;52.392;13.092;2022-12-07T03:31:36;100678.11;;;7.12;56.84
27304;BME280;14791;52.392;13.092;2022-12-07T03:34:19;100674.77;;;7.17;56.89
27304;BME280;14791;52.392;13.092;2022-12-07T03:37:08;100678.84;;;7.24;56.89
27304;BME280;14791;52.392;13.092;2022-12-07T03:39:45;100663.53;;;7.29;56.80
27304;BME280;14791;52.392;13.092;2022-12-07T03:42:14;100657.27;;;7.30;56.91
27304;BME280;14791;52.392;13.092;2022-12-07T03:44:43;100661.92;;;7.35;56.82
27304;BME280;14791;52.392;13.092;2022-12-07T03:52:51;100642.78;;;7.55;56.67
27304;BME280;14791;52.392;13.092;2022-12-07T03:55:31;100649.43;;;7.55;56.62
27304;BME280;14791;52.392;13.092;2022-12-07T03:58:08;100642.24;;;7.57;56.57
27304;BME280;14791;52.392;13.092;2022-12-07T04:00:32;100637.53;;;7.53;56.57
27304;BME280;14791;52.392;13.092;2022-12-07T04:03:01;100638.39;;;7.54;56.54
27304;BME280;14791;52.392;13.092;2022-12-07T04:05:30;100638.39;;;7.54;56.51
27304;BME280;14791;52.392;13.092;2022-12-07T04:07:59;100632.77;;;7.51;56.56
27304;BME280;14791;52.392;13.092;2022-12-07T04:10:28;100633.41;;;7.48;56.68
27304;BME280;14791;52.392;13.092;2022-12-07T04:12:57;100630.02;;;7.44;56.73
27304;BME280;14791;52.392;13.092;2022-12-07T04:15:26;100622.59;;;7.42;56.89
27304;BME280;14791;52.392;13.092;2022-12-07T04:17:55;100622.27;;;7.39;57.05
27304;BME280;14791;52.392;13.092;2022-12-07T04:20:24;100620.57;;;7.38;57.10
27304;BME280;14791;52.392;13.092;2022-12-07T04:22:53;100616.66;;;7.37;57.15
27304;BME280;14791;52.392;13.092;2022-12-07T04:25:22;100610.11;;;7.35;57.26
27304;BME280;14791;52.392;13.092;2022-12-07T04:27:50;100611.50;;;7.34;57.30
27304;BME280;14791;52.392;13.092;2022-12-07T04:30:19;100613.78;;;7.33;57.39
27304;BME280;14791;52.392;13.092;2022-12-07T04:32:48;100609.86;;;7.31;57.52
27304;BME280;14791;52.392;13.092;2022-12-07T04:35:17;100605.46;;;7.30;57.64
27304;BME280;14791;52.392;13.092;2022-12-07T04:37:46;100593.06;;;7.31;57.74
27304;BME280;14791;52.392;13.092;2022-12-07T04:40:15;100593.92;;;7.31;57.75
27304;BME280;14791;52.392;13.092;2022-12-07T04:42:44;100594.30;;;7.32;57.63
27304;BME280;14791;52.392;13.092;2022-12-07T04:45:13;100590.31;;;7.32;57.71
27304;BME280;14791;52.392;13.092;2022-12-07T04:47:41;100595.63;;;7.32;57.81
27304;BME280;14791;52.392;13.092;2022-12-07T04:50:10;100592.90;;;7.34;57.84
27304;BME280;14791;52.392;13.092;2022-12-07T04:52:39;100586.26;;;7.34;57.91
27304;BME280;14791;52.392;13.092;2022-12-07T04:55:08;100587.52;;;7.35;57.88
27304;BME280;14791;52.392;13.092;2022-12-07T04:57:37;100586.19;;;7.35;57.91
27304;BME280;14791;52.392;13.092;2022-12-07T05:00:07;100579.92;;;7.36;57.88
27304;BME280;14791;52.392;13.092;2022-12-07T05:02:36;100572.33;;;7.37;57.89
27304;BME280;14791;52.392;13.092;2022-12-07T05:05:05;100573.66;;;7.37;57.84
27304;BME280;14791;52.392;13.092;2022-12-07T05:07:34;100566.64;;;7.36;57.80
27304;BME280;14791;52.392;13.092;2022-12-07T05:10:03;100565.85;;;7.34;57.88
27304;BME280;14791;52.392;13.092;2022-12-07T05:12:32;100565.85;;;7.34;57.93
27304;BME280;14791;52.392;13.092;2022-12-07T05:15:01;100568.52;;;7.34;57.95
27304;BME280;14791;52.392;13.092;2022-12-07T05:17:30;100566.80;;;7.33;57.98
27304;BME280;14791;52.392;13.092;2022-12-07T05:19:59;100566.39;;;7.32;58.12
27304;BME280;14791;52.392;13.092;2022-12-07T05:22:27;100561.97;;;7.33;58.17
27304;BME280;14791;52.392;13.092;2022-12-07T05:24:56;100558.83;;;7.33;58.18
27304;BME280;14791;52.392;13.092;2022-12-07T05:27:25;100558.73;;;7.35;58.23
27304;BME280;14791;52.392;13.092;2022-12-07T05:29:54;100556.96;;;7.35;58.28
27304;BME280;14791;52.392;13.092;2022-12-07T05:32:23;100556.48;;;7.36;58.38
27304;BME280;14791;52.392;13.092;2022-12-07T05:34:52;100549.37;;;7.36;58.41
27304;BME280;14791;52.392;13.092;2022-12-07T05:37:22;100546.17;;;7.38;58.48
27304;BME280;14791;52.392;13.092;2022-12-07T05:39:51;100543.34;;;7.41;58.57
27304;BME280;14791;52.392;13.092;2022-12-07T05:42:20;100540.52;;;7.44;58.61
27304;BME280;14791;52.392;13.092;2022-12-07T05:44:49;100545.16;;;7.50;58.60
27304;BME280;14791;52.392;13.092;2022-12-07T05:47:17;100542.33;;;7.53;58.61
27304;BME280;14791;52.392;13.092;2022-12-07T05:49:46;100540.35;;;7.56;58.54
27304;BME280;14791;52.392;13.092;2022-12-07T05:52:15;100532.69;;;7.59;58.61
27304;BME280;14791;52.392;13.092;2022-12-07T05:54:44;100532.00;;;7.64;58.65
27304;BME280;14791;52.392;13.092;2022-12-07T05:57:13;100522.53;;;7.67;58.69
27304;BME280;14791;52.392;13.092;2022-12-07T05:59:42;100524.39;;;7.74;58.62
27304;BME280;14791;52.392;13.092;2022-12-07T06:02:13;100520.17;;;7.78;58.63
27304;BME280;14791;52.392;13.092;2022-12-07T06:04:45;100528.75;;;7.83;58.60
27304;BME280;14791;52.392;13.092;2022-12-07T06:07:15;100524.22;;;7.85;58.57
27304;BME280;14791;52.392;13.092;2022-12-07T06:09:44;100519.09;;;7.89;58.53
27304;BME280;14791;52.392;13.092;2022-12-07T06:12:13;100518.55;;;7.92;58.49
27304;BME280;14791;52.392;13.092;2022-12-07T06:15:00;100512.30;;;7.93;58.54
27304;BME280;14791;52.392;13.092;2022-12-07T06:17:30;100512.85;;;7.91;58.66
27304;BME280;14791;52.392;13.092;2022-12-07T06:19:58;100512.30;;;7.93;58.70
27304;BME280;14791;52.392;13.092;2022-12-07T06:22:27;100512.03;;;7.97;58.59
27304;BME280;14791;52.392;13.092;2022-12-07T06:24:56;100511.95;;;7.99;58.64
27304;BME280;14791;52.392;13.092;2022-12-07T06:27:25;100513.59;;;8.01;58.67
27304;BME280;14791;52.392;13.092;2022-12-07T06:29:54;100515.70;;;8.03;58.68
27304;BME280;14791;52.392;13.092;2022-12-07T06:32:23;100518.66;;;8.06;58.71
27304;BME280;14791;52.392;13.092;2022-12-07T06:34:52;100516.41;;;8.07;58.73
27304;BME280;14791;52.392;13.092;2022-12-07T06:37:20;100510.42;;;8.10;58.74
27304;BME280;14791;52.392;13.092;2022-12-07T06:39:49;100513.02;;;8.12;58.75
27304;BME280;14791;52.392;13.092;2022-12-07T06:42:18;100512.28;;;8.17;58.74
27304;BME280;14791;52.392;13.092;2022-12-07T06:44:47;100513.44;;;8.20;58.79
27304;BME280;14791;52.392;13.092;2022-12-07T06:47:16;100507.02;;;8.24;58.74
27304;BME280;14791;52.392;13.092;2022-12-07T06:49:45;100521.87;;;8.28;58.70
27304;BME280;14791;52.392;13.092;2022-12-07T06:52:14;100508.47;;;8.30;58.71
27304;BME280;14791;52.392;13.092;2022-12-07T06:54:43;100506.88;;;8.35;58.73
27304;BME280;14791;52.392;13.092;2022-12-07T06:57:12;100497.86;;;8.37;58.71
27304;BME280;14791;52.392;13.092;2022-12-07T06:59:41;100498.97;;;8.42;58.62
27304;BME280;14791;52.392;13.092;2022-12-07T07:02:10;100504.11;;;8.45;58.56
27304;BME280;14791;52.392;13.092;2022-12-07T07:04:39;100504.88;;;8.47;58.54
27304;BME280;14791;52.392;13.092;2022-12-07T07:07:08;100507.39;;;8.50;58.56
27304;BME280;14791;52.392;13.092;2022-12-07T07:09:36;100505.48;;;8.52;58.49
27304;BME280;14791;52.392;13.092;2022-12-07T07:12:05;100502.26;;;8.54;58.45
27304;BME280;14791;52.392;13.092;2022-12-07T07:14:34;100503.89;;;8.57;58.41
27304;BME280;14791;52.392;13.092;2022-12-07T07:17:04;100504.66;;;8.59;58.39
27304;BME280;14791;52.392;13.092;2022-12-07T07:19:33;100510.28;;;8.61;58.38
27304;BME280;14791;52.392;13.092;2022-12-07T07:22:02;100509.36;;;8.62;58.36
27304;BME280;14791;52.392;13.092;2022-12-07T07:24:31;100510.13;;;8.64;58.32
27304;BME280;14791;52.392;13.092;2022-12-07T07:27:00;100510.50;;;8.65;58.26
27304;BME280;14791;52.392;13.092;2022-12-07T07:29:29;100509.95;;;8.67;58.20
27304;BME280;14791;52.392;13.092;2022-12-07T07:31:58;100517.83;;;8.69;58.17
27304;BME280;14791;52.392;13.092;2022-12-07T07:34:28;100515.09;;;8.70;58.11
27304;BME280;14791;52.392;13.092;2022-12-07T07:36:57;100509.69;;;8.72;58.10
27304;BME280;14791;52.392;13.092;2022-12-07T07:39:26;100517.67;;;8.72;58.10
27304;BME280;14791;52.392;13.092;2022-12-07T07:41:55;100517.97;;;8.75;58.00
27304;BME280;14791;52.392;13.092;2022-12-07T07:44:25;100523.66;;;8.76;57.97
27304;BME280;14791;52.392;13.092;2022-12-07T07:46:54;100522.73;;;8.77;57.99
27304;BME280;14791;52.392;13.092;2022-12-07T07:49:23;100520.45;;;8.78;58.03
27304;BME280;14791;52.392;13.092;2022-12-07T07:51:52;100524.25;;;8.81;57.97
27304;BME280;14791;52.392;13.092;2022-12-07T07:54:21;100522.29;;;8.84;57.91
27304;BME280;14791;52.392;13.092;2022-12-07T07:56:50;100519.52;;;8.86;57.86
27304;BME280;14791;52.392;13.092;2022-12-07T07:59:20;100527.36;;;8.89;57.83
27304;BME280;14791;52.392;13.092;2022-12-07T08:01:49;100524.21;;;8.89;57.75
27304;BME280;14791;52.392;13.092;2022-12-07T08:04:18;100532.57;;;8.90;57.70
27304;BME280;14791;52.392;13.092;2022-12-07T08:06:47;100528.87;;;8.93;57.71
27304;BME280;14791;52.392;13.092;2022-12-07T08:09:15;100530.20;;;8.93;57.68
27304;BME280;14791;52.392;13.092;2022-12-07T08:11:44;100534.97;;;8.95;57.70
27304;BME280;14791;52.392;13.092;2022-12-07T08:14:13;100533.08;;;8.97;57.74
27304;BME280;14791;52.392;13.092;2022-12-07T08:16:42;100523.57;;;9.00;57.63
27304;BME280;14791;52.392;13.092;2022-12-07T08:19:11;100523.97;;;9.01;57.57
27304;BME280;14791;52.392;13.092;2022-12-07T08:21:40;100527.41;;;9.03;57.56
27304;BME280;14791;52.392;13.092;2022-12-07T08:24:09;100526.92;;;9.04;57.48
27304;BME280;14791;52.392;13.092;2022-12-07T08:26:37;100533.11;;;9.04;57.37
27304;BME280;14791;52.392;13.092;2022-12-07T08:29:06;100534.44;;;9.04;57.28
27304;BME280;14791;52.392;13.092;2022-12-07T08:31:36;100539.21;;;9.06;57.20
27304;BME280;14791;52.392;13.092;2022-12-07T08:34:05;100539.58;;;9.07;57.01
27304;BME280;14791;52.392;13.092;2022-12-07T08:36:34;100547.98;;;9.08;56.95
27304;BME280;14791;52.392;13.092;2022-12-07T08:39:04;100543.58;;;9.07;56.92
27304;BME280;14791;52.392;13.092;2022-12-07T08:41:33;100552.83;;;9.09;56.90
27304;BME280;14791;52.392;13.092;2022-12-07T08:44:03;100548.34;;;9.09;56.76
27304;BME280;14791;52.392;13.092;2022-12-07T08:46:49;100553.30;;;9.08;56.63
27304;BME280;14791;52.392;13.092;2022-12-07T08:49:22;100546.56;;;9.10;56.58
27304;BME280;14791;52.392;13.092;2022-12-07T08:51:50;100555.01;;;9.09;56.55
27304;BME280;14791;52.392;13.092;2022-12-07T08:54:20;100547.41;;;9.10;56.54
27304;BME280;14791;52.392;13.092;2022-12-07T08:56:50;100557.11;;;9.11;56.39
27304;BME280;14791;52.392;13.092;2022-12-07T08:59:20;100554.27;;;9.14;56.39
27304;BME280;14791;52.392;13.092;2022-12-07T09:01:50;100556.84;;;9.16;56.19
27304;BME280;14791;52.392;13.092;2022-12-07T09:04:19;100556.84;;;9.16;56.01
27304;BME280;14791;52.392;13.092;2022-12-07T09:06:48;100563.98;;;9.15;55.98
27304;BME280;14791;52.392;13.092;2022-12-07T09:09:17;100561.33;;;9.15;55.91
27304;BME280;14791;52.392;13.092;2022-12-07T09:11:46;100558.73;;;9.14;55.83
27304;BME280;14791;52.392;13.092;2022-12-07T09:14:15;100571.20;;;9.13;55.86
27304;BME280;14791;52.392;13.092;2022-12-07T09:16:45;100564.55;;;9.13;55.78
27304;BME280;14791;52.392;13.092;2022-12-07T09:19:13;100573.02;;;9.13;55.74
27304;BME280;14791;52.392;13.092;2022-12-07T09:21:42;100574.84;;;9.12;55.60
27304;BME280;14791;52.392;13.092;2022-12-07T09:24:12;100583.58;;;9.14;55.61
27304;BME280;14791;52.392;13.092;2022-12-07T09:26:42;100571.98;;;9.15;55.61
27304;BME280;14791;52.392;13.092;2022-12-07T09:29:12;100580.34;;;9.16;55.49
27304;BME280;14791;52.392;13.092;2022-12-07T09:31:41;100585.67;;;9.16;55.48
27304;BME280;14791;52.392;13.092;2022-12-07T09:34:10;100583.78;;;9.19;55.47
27304;BME280;14791;52.392;13.092;2022-12-07T09:36:38;100584.19;;;9.20;55.55
27304;BME280;14791;52.392;13.092;2022-12-07T09:39:07;100592.84;;;9.23;55.65
27304;BME280;14791;52.392;13.092;2022-12-07T09:41:41;100593.14;;;9.26;55.69
27304;BME280;14791;52.392;13.092;2022-12-07T09:44:20;100594.28;;;9.29;55.50
27304;BME280;14791;52.392;13.092;2022-12-07T09:46:43;100596.02;;;9.30;55.25
27304;BME280;14791;52.392;13.092;2022-12-07T09:49:16;100597.14;;;9.26;55.26
27304;BME280;14791;52.392;13.092;2022-12-07T09:51:45;100601.14;;;9.26;55.24
27304;BME280;14791;52.392;13.092;2022-12-07T09:54:16;100603.91;;;9.24;55.28
27304;BME280;14791;52.392;13.092;2022-12-07T09:56:45;100599.44;;;9.25;55.28
27304;BME280;14791;52.392;13.092;2022-12-07T09:59:16;100602.10;;;9.25;55.19
27304;BME280;14791;52.392;13.092;2022-12-07T10:01:48;100605.62;;;9.25;55.02
27304;BME280;14791;52.392;13.092;2022-12-07T10:04:20;100601.33;;;9.23;55.01
27304;BME280;14791;52.392;13.092;2022-12-07T10:06:52;100603.70;;;9.20;55.11
27304;BME280;14791;52.392;13.092;2022-12-07T10:09:22;100601.96;;;9.19;55.22
27304;BME280;14791;52.392;13.092;2022-12-07T10:12:00;100599.77;;;9.19;55.28
27304;BME280;14791;52.392;13.092;2022-12-07T10:14:31;100601.11;;;9.19;55.31
27304;BME280;14791;52.392;13.092;2022-12-07T10:17:01;100607.29;;;9.19;55.36
27304;BME280;14791;52.392;13.092;2022-12-07T10:19:32;100606.25;;;9.22;55.39
27304;BME280;14791;52.392;13.092;2022-12-07T10:22:13;100599.44;;;9.25;55.31
27304;BME280;14791;52.392;13.092;2022-12-07T10:24:45;100601.14;;;9.26;55.26
27304;BME280;14791;52.392;13.092;2022-12-07T10:27:32;100607.31;;;9.26;55.29
27304;BME280;14791;52.392;13.092;2022-12-07T10:29:52;100602.77;;;9.28;55.33
27304;BME280;14791;52.392;13.092;2022-12-07T10:32:37;100591.17;;;9.29;55.31
27304;BME280;14791;52.392;13.092;2022-12-07T10:35:20;100593.17;;;9.33;55.31
27304;BME280;14791;52.392;13.092;2022-12-07T10:37:50;100584.05;;;9.37;55.36
27304;BME280;14791;52.392;13.092;2022-12-07T10:40:34;100588.42;;;9.38;55.47
27304;BME280;14791;52.392;13.092;2022-12-07T10:51:41;100583.61;;;9.52;55.45
27304;BME280;14791;52.392;13.092;2022-12-07T10:57:10;100579.42;;;9.55;55.22
27304;BME280;14791;52.392;13.092;2022-12-07T11:00:03;100585.63;;;9.55;55.08
27304;BME280;14791;52.392;13.092;2022-12-07T11:02:41;100579.13;;;9.52;54.95
27304;BME280;14791;52.392;13.092;2022-12-07T11:08:04;100578.26;;;9.45;55.00
27304;BME280;14791;52.392;13.092;2022-12-07T11:10:42;100576.63;;;9.42;55.07
27304;BME280;14791;52.392;13.092;2022-12-07T11:16:18;100571.78;;;9.42;54.96
27304;BME280;14791;52.392;13.092;2022-12-07T11:21:45;100572.62;;;9.35;55.20
27304;BME280;14791;52.392;13.092;2022-12-07T11:24:18;100564.62;;;9.35;55.21
27304;BME280;14791;52.392;13.092;2022-12-07T11:30:07;100557.95;;;9.35;55.18
27304;BME280;14791;52.392;13.092;2022-12-07T11:32:57;100554.92;;;9.34;55.28
27304;BME280;14791;52.392;13.092;2022-12-07T11:38:08;100551.97;;;9.31;55.47
27304;BME280;14791;52.392;13.092;2022-12-07T11:40:38;100548.63;;;9.35;55.50
27304;BME280;14791;52.392;13.092;2022-12-07T11:43:26;100547.10;;;9.38;55.42
27304;BME280;14791;52.392;13.092;2022-12-07T11:46:03;100544.64;;;9.42;55.29
27304;BME280;14791;52.392;13.092;2022-12-07T11:51:15;100552.29;;;9.48;55.34
27304;BME280;14791;52.392;13.092;2022-12-07T11:53:57;100538.77;;;9.51;55.31
27304;BME280;14791;52.392;13.092;2022-12-07T11:56:23;100542.97;;;9.55;55.25
27304;BME280;14791;52.392;13.092;2022-12-07T12:01:57;100538.98;;;9.63;55.17
27304;BME280;14791;52.392;13.092;2022-12-07T12:07:23;100533.45;;;9.66;55.30
27304;BME280;14791;52.392;13.092;2022-12-07T12:09:58;100541.73;;;9.68;55.37
27304;BME280;14791;52.392;13.092;2022-12-07T12:12:48;100533.83;;;9.74;55.33
27304;BME280;14791;52.392;13.092;2022-12-07T12:21:12;100527.73;;;9.86;55.14
27304;BME280;14791;52.392;13.092;2022-12-07T12:23:46;100525.18;;;9.92;55.04
27304;BME280;14791;52.392;13.092;2022-12-07T12:26:24;100523.93;;;9.97;54.91
27304;BME280;14791;52.392;13.092;2022-12-07T12:29:02;100523.28;;;10.01;54.75
27304;BME280;14791;52.392;13.092;2022-12-07T12:31:40;100531.16;;;10.03;54.62
27304;BME280;14791;52.392;13.092;2022-12-07T12:36:53;100526.39;;;10.08;54.49
27304;BME280;14791;52.392;13.092;2022-12-07T12:39:23;100530.67;;;10.10;54.28
27304;BME280;14791;52.392;13.092;2022-12-07T12:41:55;100530.67;;;10.10;54.28
27304;BME280;14791;52.392;13.092;2022-12-07T12:47:37;100529.54;;;10.14;54.27
27304;BME280;14791;52.392;13.092;2022-12-07T12:49:42;100530.79;;;10.16;54.19
27304;BME280;14791;52.392;13.092;2022-12-07T12:53:04;100528.89;;;10.18;54.21
27304;BME280;14791;52.392;13.092;2022-12-07T12:55:01;100524.59;;;10.22;54.10
27304;BME280;14791;52.392;13.092;2022-12-07T12:57:31;100524.59;;;10.22;54.10
27304;BME280;14791;52.392;13.092;2022-12-07T13:00:21;100531.15;;;10.24;54.08
27304;BME280;14791;52.392;13.092;2022-12-07T13:02:58;100525.33;;;10.25;54.05
27304;BME280;14791;52.392;13.092;2022-12-07T13:05:30;100522.38;;;10.22;53.97
27304;BME280;14791;52.392;13.092;2022-12-07T13:08:21;100514.37;;;10.22;53.94
27304;BME280;14791;52.392;13.092;2022-12-07T13:10:50;100520.31;;;10.20;53.91
27304;BME280;14791;52.392;13.092;2022-12-07T13:15:56;100517.45;;;10.16;53.94
27304;BME280;14791;52.392;13.092;2022-12-07T13:29:12;100506.09;;;10.05;53.85
27304;BME280;14791;52.392;13.092;2022-12-07T13:34:40;100508.32;;;9.98;53.85
27304;BME280;14791;52.392;13.092;2022-12-07T13:39:49;100510.99;;;9.91;53.94
27304;BME280;14791;52.392;13.092;2022-12-07T13:42:27;100513.34;;;9.89;53.99
27304;BME280;14791;52.392;13.092;2022-12-07T13:44:57;100512.89;;;9.89;53.96
27304;BME280;14791;52.392;13.092;2022-12-07T13:50:27;100510.23;;;9.89;53.87
27304;BME280;14791;52.392;13.092;2022-12-07T13:52:36;100510.67;;;9.89;53.90
27304;BME280;14791;52.392;13.092;2022-12-07T13:55:15;100516.89;;;9.89;53.86
27304;BME280;14791;52.392;13.092;2022-12-07T13:57:48;100515.16;;;9.88;53.80
27304;BME280;14791;52.392;13.092;2022-12-07T14:00:20;100510.03;;;9.85;53.81
27304;BME280;14791;52.392;13.092;2022-12-07T14:05:44;100506.51;;;9.85;53.78
27304;BME280;14791;52.392;13.092;2022-12-07T14:13:31;100506.22;;;9.75;53.82
27304;BME280;14791;52.392;13.092;2022-12-07T14:16:18;100517.94;;;9.72;53.83
27304;BME280;14791;52.392;13.092;2022-12-07T14:18:41;100515.55;;;9.68;53.81
27304;BME280;14791;52.392;13.092;2022-12-07T14:21:18;100520.31;;;9.63;53.81
27304;BME280;14791;52.392;13.092;2022-12-07T14:24:14;100510.58;;;9.62;53.85
27304;BME280;14791;52.392;13.092;2022-12-07T14:26:44;100506.86;;;9.57;53.94
27304;BME280;14791;52.392;13.092;2022-12-07T14:29:31;100518.01;;;9.56;53.96
27304;BME280;14791;52.392;13.092;2022-12-07T14:32:19;100522.49;;;9.56;53.90
27304;BME280;14791;52.392;13.092;2022-12-07T14:34:56;100517.44;;;9.51;53.92
27304;BME280;14791;52.392;13.092;2022-12-07T14:37:25;100514.36;;;9.43;53.95
27304;BME280;14791;52.392;13.092;2022-12-07T14:39:55;100517.13;;;9.42;53.95
27304;BME280;14791;52.392;13.092;2022-12-07T14:42:27;100512.37;;;9.40;53.88
27304;BME280;14791;52.392;13.092;2022-12-07T14:44:57;100504.45;;;9.38;53.83
27304;BME280;14791;52.392;13.092;2022-12-07T14:47:26;100510.94;;;9.34;53.82
27304;BME280;14791;52.392;13.092;2022-12-07T14:49:55;100507.59;;;9.30;53.75
27304;BME280;14791;52.392;13.092;2022-12-07T14:52:29;100510.33;;;9.29;53.74
27304;BME280;14791;52.392;13.092;2022-12-07T14:54:58;100506.16;;;9.25;53.72
27304;BME280;14791;52.392;13.092;2022-12-07T14:57:27;100510.98;;;9.18;53.75
27304;BME280;14791;52.392;13.092;2022-12-07T14:59:56;100512.11;;;9.14;53.73
27304;BME280;14791;52.392;13.092;2022-12-07T15:02:25;100508.86;;;9.09;53.79